METAR Data
IDs: Format: Raw Decoded Include TAF

Data at: 1650 UTC 18 Feb 2019

METAR for:KDSM (Des Moines Intl, IA, US)
Text:KDSM 181554Z 32008KT 10SM FEW025 FEW200 FEW250 M09/M12 A3043 RMK AO2 SLP321 T10891117
Temperature: -8.9°C ( 16°F)
Dewpoint:-11.7°C ( 11°F) [RH = 80%]
Pressure (altimeter):30.43 inches Hg (1030.6 mb) [Sea level pressure: 1032.1 mb]
Winds:from the NW (320 degrees) at 9 MPH (8 knots; 4.1 m/s)
Visibility:10 or more sm (16+ km)
Ceiling:at least 12,000 feet AGL
Clouds: few clouds at 2500 feet AGL, few clouds at 20000 feet AGL, few clouds at 25000 feet AGL